Time;durP1;ratioP1;P1;durP2;ratioP2;P2;SDS_P1;SDS_P2;PMS_P1;PMS_P2;Temp;Humidity;BMP_temperature;BMP_pressure;BME280_temperature;BME280_humidity;BME280_pressure;Samples;Min_cycle;Max_cycle;Signal;HPM_P1;HPM_P2
2023/12/14 00:01:19;;;;;;;49.05;30.30;;;;;;;6.54;100.00;100352.03;10454505;28;20048;-89
2023/12/14 00:06:19;;;;;;;56.88;29.50;;;;;;;6.46;100.00;100352.50;10479008;28;20048;-89
2023/12/14 00:11:20;;;;;;;44.55;28.15;;;;;;;6.38;100.00;100355.50;10470187;28;20551;-89
2023/12/14 00:16:20;;;;;;;38.53;22.27;;;;;;;6.32;100.00;100366.44;10505471;28;20048;-89
2023/12/14 00:21:21;;;;;;;42.88;24.58;;;;;;;6.30;100.00;100381.94;10469169;28;20575;-88
2023/12/14 00:26:21;;;;;;;52.28;25.38;;;;;;;6.24;100.00;100391.09;10477439;28;20092;-89
2023/12/14 00:31:22;;;;;;;42.10;26.58;;;;;;;6.21;100.00;100399.63;10472259;28;20917;-89
2023/12/14 00:36:22;;;;;;;43.83;25.58;;;;;;;6.11;100.00;100413.75;10480429;28;20143;-88
2023/12/14 00:41:23;;;;;;;44.40;20.85;;;;;;;6.05;100.00;100421.19;10481501;28;20044;-89
2023/12/14 00:46:23;;;;;;;39.80;20.30;;;;;;;6.01;100.00;100429.63;10477864;28;20036;-89
2023/12/14 00:51:24;;;;;;;36.00;21.90;;;;;;;5.96;100.00;100439.72;10520916;28;20056;-90
2023/12/14 00:56:24;;;;;;;36.13;21.77;;;;;;;5.93;100.00;100459.41;10475475;28;20150;-88
2023/12/14 01:01:25;;;;;;;41.42;25.05;;;;;;;5.85;100.00;100467.63;10478406;28;20135;-89
2023/12/14 01:06:25;;;;;;;45.35;27.00;;;;;;;5.82;100.00;100487.34;10490422;28;20060;-90
2023/12/14 01:11:26;;;;;;;45.00;25.80;;;;;;;5.84;100.00;100491.81;10478219;28;20045;-90
2023/12/14 01:16:27;;;;;;;46.67;24.25;;;;;;;5.83;100.00;100509.91;10476200;28;20040;-90
2023/12/14 01:21:27;;;;;;;42.03;25.93;;;;;;;5.80;100.00;100521.00;10488564;28;20361;-88
2023/12/14 01:26:28;;;;;;;39.05;23.73;;;;;;;5.77;100.00;100523.41;10491481;28;20052;-90
2023/12/14 01:31:28;;;;;;;43.78;25.42;;;;;;;5.69;100.00;100532.44;10503681;28;20167;-88
2023/12/14 01:36:29;;;;;;;43.25;25.30;;;;;;;5.65;100.00;100535.63;10476588;28;20071;-91
2023/12/14 01:41:29;;;;;;;35.15;23.05;;;;;;;5.53;100.00;100539.25;10446361;28;20120;-90
2023/12/14 01:46:30;;;;;;;33.92;20.45;;;;;;;5.46;100.00;100544.88;10438431;28;20124;-91
2023/12/14 01:51:30;;;;;;;41.42;22.08;;;;;;;5.42;100.00;100548.06;10490817;28;20127;-89
2023/12/14 01:56:31;;;;;;;38.28;22.83;;;;;;;5.36;100.00;100571.03;10497600;28;20132;-92
2023/12/14 02:01:38;;;;;;;39.30;22.20;;;;;;;5.26;100.00;100585.13;10450877;28;20114;-91
2023/12/14 02:06:39;;;;;;;34.92;18.42;;;;;;;5.17;100.00;100600.09;10498837;28;20044;-91
2023/12/14 02:11:39;;;;;;;36.85;22.23;;;;;;;5.14;100.00;100613.75;10443561;28;20079;-90
2023/12/14 02:16:40;;;;;;;36.67;21.23;;;;;;;5.06;100.00;100620.16;10487756;28;20121;-91
2023/12/14 02:21:41;;;;;;;43.85;22.08;;;;;;;5.09;100.00;100643.69;10456111;28;20039;-91
2023/12/14 02:26:42;;;;;;;42.77;22.83;;;;;;;5.09;100.00;100647.19;10513034;28;20040;-91
2023/12/14 02:31:42;;;;;;;35.30;22.15;;;;;;;5.09;100.00;100654.06;10472734;28;20048;-91
2023/12/14 02:36:44;;;;;;;37.17;21.27;;;;;;;5.05;100.00;100652.97;10473384;28;20455;-91
2023/12/14 02:41:45;;;;;;;38.22;22.50;;;;;;;5.06;100.00;100656.47;10467359;28;20040;-92
2023/12/14 02:46:45;;;;;;;36.75;23.65;;;;;;;5.01;100.00;100658.75;10464076;28;20485;-92
2023/12/14 02:51:46;;;;;;;26.30;21.05;;;;;;;4.96;100.00;100667.94;10457871;28;20111;-91
2023/12/14 02:56:46;;;;;;;35.60;19.90;;;;;;;4.93;100.00;100679.00;10437920;28;20065;-90
2023/12/14 03:01:47;;;;;;;36.03;20.38;;;;;;;4.92;100.00;100690.16;10455712;28;20488;-92
2023/12/14 03:06:47;;;;;;;41.10;25.05;;;;;;;4.91;100.00;100701.31;10453026;28;20052;-92
2023/12/14 03:11:48;;;;;;;38.65;21.77;;;;;;;4.90;100.00;100707.31;10460429;28;20535;-92
2023/12/14 03:16:49;;;;;;;44.13;20.88;;;;;;;4.89;100.00;100721.06;10463543;28;20040;-91
2023/12/14 03:21:49;;;;;;;36.83;21.90;;;;;;;4.89;100.00;100722.78;10465984;28;20123;-91
2023/12/14 03:26:50;;;;;;;42.88;24.40;;;;;;;4.92;100.00;100738.56;10476650;28;20094;-91
2023/12/14 03:31:50;;;;;;;35.70;20.83;;;;;;;4.89;100.00;100746.13;10464469;28;20047;-90
2023/12/14 03:36:51;;;;;;;37.80;20.10;;;;;;;4.84;100.00;100753.56;10482361;28;20143;-91
2023/12/14 03:41:51;;;;;;;28.60;17.23;;;;;;;4.85;100.00;100750.19;10480682;28;20086;-89
2023/12/14 03:46:54;;;;;;;26.75;18.58;;;;;;;4.83;100.00;100757.88;10435402;28;20553;-90
2023/12/14 03:51:54;;;;;;;;;;;;;;;4.80;100.00;100756.75;10429381;28;20076;-91
2023/12/14 03:56:54;;;;;;;41.97;22.80;;;;;;;4.77;100.00;100761.72;10460485;28;20632;-89
2023/12/14 04:01:55;;;;;;;44.55;24.98;;;;;;;4.75;100.00;100765.91;10429450;28;20059;-89
2023/12/14 04:06:55;;;;;;;38.10;22.90;;;;;;;4.73;100.00;100785.63;10429818;28;21155;-90
2023/12/14 04:11:56;;;;;;;37.40;22.38;;;;;;;4.75;100.00;100797.00;10388350;28;20037;-90
2023/12/14 04:16:56;;;;;;;40.15;22.67;;;;;;;4.64;100.00;100793.69;10451277;28;20120;-90
2023/12/14 04:21:57;;;;;;;33.28;17.92;;;;;;;4.60;100.00;100799.44;10438885;28;20124;-91
2023/12/14 04:26:58;;;;;;;37.10;19.63;;;;;;;4.60;100.00;100810.69;10490710;28;20115;-91
2023/12/14 04:31:58;;;;;;;35.65;18.80;;;;;;;4.60;100.00;100817.59;10487568;28;20041;-92
2023/12/14 04:36:59;;;;;;;34.35;18.13;;;;;;;4.60;100.00;100828.84;10466816;28;20112;-92
2023/12/14 04:41:59;;;;;;;33.05;21.42;;;;;;;4.55;100.00;100838.00;10487195;28;20052;-91
2023/12/14 04:47:00;;;;;;;44.60;22.30;;;;;;;4.41;100.00;100840.50;10448542;28;20116;-90
2023/12/14 04:52:00;;;;;;;42.47;22.10;;;;;;;4.38;100.00;100858.41;10415965;28;20041;-89
2023/12/14 04:57:01;;;;;;;38.58;23.17;;;;;;;4.37;100.00;100866.09;10429885;28;20041;-90
2023/12/14 05:02:02;;;;;;;47.22;24.45;;;;;;;4.33;100.00;100867.53;10444416;28;20052;-90
2023/12/14 05:07:02;;;;;;;40.23;23.57;;;;;;;4.21;100.00;100877.94;10424582;28;20063;-88
2023/12/14 05:12:04;;;;;;;39.50;23.95;;;;;;;4.17;100.00;100900.88;10474138;28;20048;-89
2023/12/14 05:17:04;;;;;;;64.27;29.93;;;;;;;4.06;100.00;100911.34;10479801;28;20222;-90
2023/12/14 05:22:04;;;;;;;55.17;25.73;;;;;;;4.06;100.00;100918.25;10501435;28;20048;-90
2023/12/14 05:27:05;;;;;;;44.72;25.98;;;;;;;4.08;100.00;100938.28;10498442;28;20732;-91
2023/12/14 05:32:06;;;;;;;48.58;27.30;;;;;;;4.05;100.00;100940.63;10473704;28;20044;-91
2023/12/14 05:37:07;;;;;;;26.00;17.45;;;;;;;4.16;100.00;100953.50;10464848;28;20047;-93
2023/12/14 05:42:08;;;;;;;45.60;24.73;;;;;;;4.11;100.00;100958.34;10483717;28;20036;-94
2023/12/14 05:47:08;;;;;;;46.72;25.08;;;;;;;4.13;100.00;100971.38;10472165;28;20044;-93
2023/12/14 05:52:09;;;;;;;40.85;23.70;;;;;;;4.08;100.00;100984.00;10483430;28;20543;-85
2023/12/14 05:57:12;;;;;;;33.58;20.05;;;;;;;4.07;100.00;101001.22;10478474;28;20045;-89
2023/12/14 06:02:13;;;;;;;40.80;23.63;;;;;;;4.11;100.00;101011.03;10474516;28;20067;-94
2023/12/14 06:07:17;;;;;;;39.08;22.83;;;;;;;4.10;100.00;101019.59;10476439;28;20571;-93
2023/12/14 06:12:17;;;;;;;38.28;22.73;;;;;;;4.16;100.00;101036.38;10466872;28;20045;-94
2023/12/14 06:17:18;;;;;;;31.52;18.98;;;;;;;4.08;100.00;101033.22;10437726;28;20088;-93
2023/12/14 06:22:18;;;;;;;31.75;21.55;;;;;;;4.06;100.00;101048.63;10436614;28;20482;-94
2023/12/14 06:27:19;;;;;;;28.52;18.70;;;;;;;3.96;100.00;101054.81;10445842;28;20177;-93
2023/12/14 06:32:19;;;;;;;37.90;21.73;;;;;;;3.98;100.00;101065.28;10486303;28;20075;-95
2023/12/14 06:37:20;;;;;;;37.75;22.73;;;;;;;4.01;100.00;101082.75;10475757;28;20394;-93
2023/12/14 06:42:21;;;;;;;35.70;23.73;;;;;;;3.89;100.00;101080.09;10503664;28;20131;-89
2023/12/14 06:47:21;;;;;;;41.85;24.48;;;;;;;3.92;100.00;101080.34;10500339;28;20155;-93
2023/12/14 06:52:22;;;;;;;34.40;23.70;;;;;;;3.88;100.00;101084.38;10501137;28;20119;-91
2023/12/14 06:57:22;;;;;;;38.78;22.65;;;;;;;3.92;100.00;101094.19;10473536;28;20095;-91
2023/12/14 07:02:23;;;;;;;36.15;21.17;;;;;;;3.88;100.00;101099.00;10473521;28;20068;-91
2023/12/14 07:07:24;;;;;;;33.13;23.27;;;;;;;3.90;100.00;101103.53;10473028;28;20052;-93
2023/12/14 07:12:25;;;;;;;45.10;24.63;;;;;;;3.85;100.00;101109.13;10436122;28;20044;-94
2023/12/14 07:17:25;;;;;;;37.78;22.80;;;;;;;3.79;100.00;101117.31;10471228;28;20120;-93
2023/12/14 07:22:26;;;;;;;34.28;21.75;;;;;;;3.71;100.00;101137.41;10458020;28;20032;-93
2023/12/14 07:27:27;;;;;;;34.03;24.60;;;;;;;3.68;100.00;101142.34;10480657;28;20068;-91
2023/12/14 07:32:27;;;;;;;31.13;21.75;;;;;;;3.67;100.00;101156.06;10441283;28;20043;-91
2023/12/14 07:37:28;;;;;;;38.65;23.85;;;;;;;3.64;100.00;101172.28;10443100;28;20076;-86
2023/12/14 07:42:28;;;;;;;39.00;22.75;;;;;;;3.66;100.00;101194.03;10445900;28;20400;-92
2023/12/14 07:47:29;;;;;;;34.53;24.95;;;;;;;3.66;100.00;101200.88;10444338;28;20069;-93
2023/12/14 07:52:29;;;;;;;36.38;22.75;;;;;;;3.61;100.00;101217.72;10456241;28;20116;-91
2023/12/14 07:57:32;;;;;;;34.55;20.58;;;;;;;3.65;100.00;101228.44;10447010;28;20123;-91
2023/12/14 08:02:33;;;;;;;27.08;20.15;;;;;;;3.72;100.00;101247.06;10466109;28;20109;-90
2023/12/14 08:07:33;;;;;;;37.22;22.75;;;;;;;3.70;100.00;101257.28;10468981;28;20044;-93
2023/12/14 08:12:34;;;;;;;26.98;20.02;;;;;;;3.74;100.00;101267.13;10487511;28;20127;-92
2023/12/14 08:17:35;;;;;;;27.73;17.65;;;;;;;3.78;100.00;101276.94;10503157;28;20164;-90
2023/12/14 08:22:35;;;;;;;26.50;17.05;;;;;;;3.75;100.00;101289.63;10495827;28;20060;-90
2023/12/14 08:27:36;;;;;;;32.15;22.67;;;;;;;3.75;100.00;101291.34;10476253;28;20489;-91
2023/12/14 08:32:36;;;;;;;30.67;19.25;;;;;;;3.85;100.00;101295.56;10499581;28;20071;-85
2023/12/14 08:37:37;;;;;;;29.30;19.77;;;;;;;3.91;100.00;101298.66;10486727;28;20033;-87
2023/12/14 08:42:37;;;;;;;36.78;23.08;;;;;;;3.96;100.00;101298.25;10483084;28;20139;-82
2023/12/14 08:47:39;;;;;;;28.45;20.75;;;;;;;4.00;100.00;101301.09;10489867;28;24416;-89
2023/12/14 08:52:39;;;;;;;29.88;20.63;;;;;;;4.01;100.00;101301.22;10470454;28;20041;-91
2023/12/14 08:57:40;;;;;;;24.20;15.60;;;;;;;4.02;100.00;101300.44;10490007;28;20033;-91
2023/12/14 09:02:40;;;;;;;32.10;20.63;;;;;;;3.92;100.00;101303.97;10485641;28;20480;-90
2023/12/14 09:07:41;;;;;;;33.60;19.33;;;;;;;4.04;100.00;101308.34;10483749;28;20039;-90
2023/12/14 09:12:41;;;;;;;28.40;16.98;;;;;;;4.07;100.00;101324.13;10487177;28;20040;-90
2023/12/14 09:17:42;;;;;;;22.23;15.90;;;;;;;4.01;100.00;101346.94;10451692;28;20068;-83
2023/12/14 09:22:43;;;;;;;23.05;14.90;;;;;;;4.13;100.00;101347.94;10485313;28;20048;-85
2023/12/14 09:27:43;;;;;;;29.02;16.08;;;;;;;4.23;100.00;101359.94;10475231;28;20033;-89
2023/12/14 09:32:44;;;;;;;24.92;15.77;;;;;;;4.28;100.00;101362.94;10487193;28;20040;-90
2023/12/14 09:37:44;;;;;;;27.67;13.27;;;;;;;4.18;100.00;101367.38;10452118;28;20555;-90
2023/12/14 09:42:45;;;;;;;21.08;13.48;;;;;;;4.21;100.00;101375.38;10469381;28;20127;-87
2023/12/14 09:47:46;;;;;;;21.67;12.00;;;;;;;4.10;100.00;101365.84;10453980;28;20404;-90
2023/12/14 09:52:48;;;;;;;18.55;12.95;;;;;;;4.08;100.00;101385.53;10484797;28;20123;-83
2023/12/14 09:57:49;;;;;;;19.42;11.10;;;;;;;4.03;100.00;101399.78;10486565;28;20103;-81
2023/12/14 10:02:50;;;;;;;21.95;12.93;;;;;;;3.93;100.00;101403.28;10485893;28;20195;-82
2023/12/14 10:07:50;;;;;;;22.02;13.25;;;;;;;3.92;100.00;101422.19;10468818;28;20036;-82
2023/12/14 10:12:53;;;;;;;27.27;16.38;;;;;;;3.93;100.00;101424.91;10466399;28;20127;-83
2023/12/14 10:17:54;;;;;;;25.60;13.07;;;;;;;4.00;100.00;101452.22;10467157;28;20060;-82
2023/12/14 10:22:55;;;;;;;28.03;15.57;;;;;;;3.98;100.00;101466.72;10482327;28;20101;-86
2023/12/14 10:27:57;;;;;;;29.92;17.48;;;;;;;3.92;100.00;101472.31;10466146;28;20060;-81
2023/12/14 10:32:57;;;;;;;28.50;16.17;;;;;;;3.85;100.00;101477.75;10477295;28;20082;-87
2023/12/14 10:38:01;;;;;;;34.50;16.13;;;;;;;3.75;100.00;101489.00;10482379;28;20541;-83
2023/12/14 10:43:02;;;;;;;30.60;17.83;;;;;;;3.69;100.00;101491.06;10423465;28;20461;-82
2023/12/14 10:48:03;;;;;;;23.75;15.23;;;;;;;3.66;100.00;101508.94;10423775;28;20045;-82
2023/12/14 10:53:05;;;;;;;23.92;14.70;;;;;;;3.72;100.00;101514.63;10429935;28;20041;-83
2023/12/14 10:58:05;;;;;;;26.37;14.33;;;;;;;3.83;100.00;101520.75;10425596;28;20423;-83
2023/12/14 11:03:06;;;;;;;29.30;16.08;;;;;;;3.98;100.00;101521.13;10499158;28;20064;-83
2023/12/14 11:08:09;;;;;;;21.77;13.80;;;;;;;4.17;100.00;101536.56;10468001;28;20037;-83
2023/12/14 11:13:12;;;;;;;21.83;14.95;;;;;;;4.20;100.00;101530.72;10423829;28;20487;-82
2023/12/14 11:18:12;;;;;;;24.33;14.77;;;;;;;4.16;100.00;101528.63;10418196;28;20076;-83
2023/12/14 11:23:19;;;;;;;27.27;18.85;;;;;;;4.19;100.00;101528.91;10441828;28;20140;-81
2023/12/14 11:28:21;;;;;;;28.80;19.05;;;;;;;4.33;100.00;101536.13;10429872;28;20039;-79
2023/12/14 11:33:21;;;;;;;23.15;16.45;;;;;;;4.48;100.00;101541.72;10447084;28;20036;-81
2023/12/14 11:38:23;;;;;;;24.02;18.77;;;;;;;4.67;100.00;101543.22;10477567;28;20492;-79
2023/12/14 11:43:26;;;;;;;25.17;15.93;;;;;;;4.77;100.00;101534.50;10494546;28;20067;-83
2023/12/14 11:48:37;;;;;;;34.05;13.05;;;;;;;4.52;100.00;101535.06;10486891;28;20032;-79
2023/12/14 11:53:38;;;;;;;17.87;12.03;;;;;;;4.33;100.00;101523.19;10438891;28;20067;-81
2023/12/14 11:58:41;;;;;;;21.57;11.97;;;;;;;4.28;100.00;101529.66;10437053;28;20033;-81
2023/12/14 12:03:43;;;;;;;24.27;15.10;;;;;;;4.20;100.00;101529.03;10500946;28;20119;-81
2023/12/14 12:08:43;;;;;;;;;;;;;;;4.24;100.00;101525.00;10462755;28;20055;-81
2023/12/14 12:13:44;;;;;;;17.30;10.80;;;;;;;4.24;100.00;101528.53;10514010;28;19934;-82
2023/12/14 12:18:44;;;;;;;18.30;12.88;;;;;;;4.38;100.00;101537.44;10468328;28;20043;-80
2023/12/14 12:23:45;;;;;;;22.88;10.93;;;;;;;4.48;100.00;101557.25;10478907;28;20464;-81
2023/12/14 12:28:47;;;;;;;14.65;9.25;;;;;;;4.33;100.00;101562.06;10479319;28;20037;-80
2023/12/14 12:33:48;;;;;;;14.98;10.23;;;;;;;4.14;100.00;101549.25;10499695;28;20433;-80
2023/12/14 12:38:48;;;;;;;18.05;10.38;;;;;;;4.03;100.00;101544.84;10486512;28;20123;-82
2023/12/14 12:43:49;;;;;;;15.20;9.52;;;;;;;4.06;100.00;101539.94;10489245;28;20124;-81
2023/12/14 12:48:51;;;;;;;17.52;11.95;;;;;;;4.15;100.00;101540.69;10484984;28;20144;-81
2023/12/14 12:53:51;;;;;;;20.08;15.40;;;;;;;4.31;100.00;101542.88;10485500;28;20033;-81
2023/12/14 12:58:53;;;;;;;18.48;12.43;;;;;;;4.69;100.00;101549.44;10489341;28;20036;-81
2023/12/14 13:03:56;;;;;;;17.10;8.40;;;;;;;5.06;100.00;101534.28;10488266;28;20052;-80
2023/12/14 13:08:56;;;;;;;11.75;8.23;;;;;;;5.17;100.00;101542.91;10486568;28;20384;-80
2023/12/14 13:13:57;;;;;;;18.70;10.85;;;;;;;4.94;100.00;101543.69;10484639;28;20131;-80
2023/12/14 13:18:57;;;;;;;16.83;9.70;;;;;;;4.76;100.00;101569.00;10486286;28;20115;-81
2023/12/14 13:23:58;;;;;;;15.07;9.70;;;;;;;4.64;100.00;101580.16;10456887;28;20048;-80
2023/12/14 13:28:58;;;;;;;16.08;10.00;;;;;;;4.54;100.00;101591.47;10485248;28;20243;-80
2023/12/14 13:33:59;;;;;;;17.48;11.20;;;;;;;4.42;100.00;101611.19;10485492;28;20565;-80
2023/12/14 13:39:01;;;;;;;21.83;14.55;;;;;;;4.22;100.00;101614.66;10484737;28;20047;-80
2023/12/14 13:44:02;;;;;;;14.45;10.20;;;;;;;4.13;100.00;101626.84;10478748;28;20120;-82
2023/12/14 13:49:02;;;;;;;16.38;13.43;;;;;;;4.02;100.00;101638.88;10460857;28;20046;-82
2023/12/14 13:54:03;;;;;;;17.33;12.82;;;;;;;3.93;100.00;101641.56;10484763;28;20124;-81
2023/12/14 13:59:03;;;;;;;16.95;12.90;;;;;;;3.88;100.00;101658.38;10483418;28;20499;-84
2023/12/14 14:04:04;;;;;;;16.48;9.55;;;;;;;3.88;100.00;101671.34;10483400;28;20033;-82
2023/12/14 14:09:05;;;;;;;15.73;8.57;;;;;;;3.90;100.00;101675.88;10482676;28;20120;-83
2023/12/14 14:14:05;;;;;;;12.05;8.45;;;;;;;3.97;100.00;101682.50;10482712;28;20041;-83
2023/12/14 14:19:06;;;;;;;11.40;8.38;;;;;;;3.95;100.00;101690.16;10483240;28;20119;-80
2023/12/14 14:24:06;;;;;;;12.27;9.18;;;;;;;3.80;100.00;101697.47;10482605;28;20120;-82
2023/12/14 14:29:10;;;;;;;13.43;9.20;;;;;;;3.69;100.00;101710.25;10467359;28;20036;-82
2023/12/14 14:34:11;;;;;;;13.68;9.57;;;;;;;3.65;100.00;101722.00;10484678;28;20040;-82
2023/12/14 14:39:12;;;;;;;15.95;10.25;;;;;;;3.61;100.00;101728.59;10484073;28;20048;-83
2023/12/14 14:44:13;;;;;;;16.53;10.63;;;;;;;3.61;100.00;101748.38;10466318;28;20048;-82
2023/12/14 14:49:13;;;;;;;15.48;8.88;;;;;;;3.51;100.00;101750.13;10481460;28;20155;-82
2023/12/14 14:54:14;;;;;;;13.80;8.57;;;;;;;3.43;100.00;101770.94;10518254;28;20186;-81
2023/12/14 14:59:15;;;;;;;18.20;11.15;;;;;;;3.45;100.00;101772.88;10522905;28;20075;-82
2023/12/14 15:04:16;;;;;;;12.13;10.13;;;;;;;3.51;100.00;101772.53;10507330;28;20044;-82
2023/12/14 15:09:16;;;;;;;14.25;10.93;;;;;;;3.53;100.00;101778.78;10505451;28;20483;-82
2023/12/14 15:14:17;;;;;;;13.38;8.98;;;;;;;3.47;100.00;101780.81;10482394;28;20139;-83
2023/12/14 15:19:18;;;;;;;15.82;11.15;;;;;;;3.31;100.00;101788.81;10477115;28;20052;-83
2023/12/14 15:24:18;;;;;;;12.55;8.77;;;;;;;3.18;100.00;101802.31;10482451;28;20049;-83
2023/12/14 15:29:20;;;;;;;20.17;10.57;;;;;;;3.05;100.00;101808.94;10482161;28;20072;-84
2023/12/14 15:34:20;;;;;;;27.67;12.07;;;;;;;2.97;100.00;101829.69;10483005;28;20029;-83
2023/12/14 15:39:21;;;;;;;18.25;11.93;;;;;;;2.96;100.00;101844.31;10482974;28;20271;-84
2023/12/14 15:44:21;;;;;;;16.52;11.05;;;;;;;2.96;100.00;101859.81;10482682;28;20132;-84
2023/12/14 15:49:22;;;;;;;16.83;9.38;;;;;;;2.96;100.00;101871.81;10482412;28;20036;-84
2023/12/14 15:54:22;;;;;;;12.75;9.00;;;;;;;2.97;100.00;101886.56;10481395;28;20119;-83
2023/12/14 15:59:23;;;;;;;16.67;11.23;;;;;;;2.95;100.00;101886.44;10481032;28;20086;-84
2023/12/14 16:04:24;;;;;;;14.38;11.20;;;;;;;2.96;100.00;101895.09;10482057;28;20047;-83
2023/12/14 16:09:24;;;;;;;17.77;13.00;;;;;;;2.99;100.00;101904.06;10426923;28;20056;-84
2023/12/14 16:14:25;;;;;;;17.13;10.73;;;;;;;2.99;100.00;101917.00;10431860;28;20067;-84
2023/12/14 16:19:25;;;;;;;18.75;10.05;;;;;;;2.99;100.00;101913.50;10447130;28;20116;-84
2023/12/14 16:24:26;;;;;;;17.50;9.57;;;;;;;3.00;100.00;101925.66;10448562;28;20454;-84
2023/12/14 16:29:26;;;;;;;24.20;14.55;;;;;;;2.96;100.00;101929.66;10430165;28;20619;-83
2023/12/14 16:34:27;;;;;;;31.35;10.75;;;;;;;2.89;100.00;101941.06;10431107;28;20052;-84
2023/12/14 16:39:29;;;;;;;22.48;12.00;;;;;;;2.86;100.00;101943.34;10468938;28;20044;-84
2023/12/14 16:44:30;;;;;;;18.02;9.95;;;;;;;2.90;100.00;101954.94;10489294;28;20075;-84
2023/12/14 16:49:30;;;;;;;19.23;11.43;;;;;;;2.88;100.00;101966.78;10487923;28;20128;-84
2023/12/14 16:54:31;;;;;;;18.00;11.35;;;;;;;2.87;100.00;101970.16;10488741;28;20033;-84
2023/12/14 16:59:32;;;;;;;17.48;11.93;;;;;;;2.88;100.00;101966.78;10486710;28;20194;-84
2023/12/14 17:04:32;;;;;;;19.83;12.25;;;;;;;2.84;100.00;101981.09;10488510;28;20036;-84
2023/12/14 17:09:33;;;;;;;23.15;12.77;;;;;;;2.78;100.00;101984.00;10487135;28;20071;-84
2023/12/14 17:14:33;;;;;;;22.38;11.85;;;;;;;2.74;100.00;102001.63;10469721;28;20429;-84
2023/12/14 17:19:34;;;;;;;20.45;11.38;;;;;;;2.71;100.00;102004.84;10469191;28;20127;-84
2023/12/14 17:24:34;;;;;;;18.98;14.00;;;;;;;2.69;100.00;102003.78;10488910;28;20151;-84
2023/12/14 17:29:35;;;;;;;26.88;15.90;;;;;;;2.68;100.00;102013.97;10468869;28;20127;-84
2023/12/14 17:34:36;;;;;;;22.88;12.93;;;;;;;2.64;100.00;102018.84;10468457;28;20127;-82
2023/12/14 17:39:36;;;;;;;23.48;13.35;;;;;;;2.63;100.00;102023.88;10482069;28;20087;-82
2023/12/14 17:44:37;;;;;;;22.73;14.88;;;;;;;2.54;100.00;102026.44;10484074;28;20123;-83
2023/12/14 17:49:37;;;;;;;26.48;15.63;;;;;;;2.49;100.00;102023.44;10484252;28;20090;-82
2023/12/14 17:54:38;;;;;;;21.67;14.23;;;;;;;2.45;100.00;102031.63;10468499;28;20042;-82
2023/12/14 17:59:39;;;;;;;27.97;17.37;;;;;;;2.47;100.00;102035.28;10447209;28;20036;-81
2023/12/14 18:04:40;;;;;;;23.25;15.02;;;;;;;2.47;100.00;102040.44;10485332;28;20045;-82
2023/12/14 18:09:40;;;;;;;24.17;17.02;;;;;;;2.44;100.00;102044.38;10483227;28;20040;-83
2023/12/14 18:14:41;;;;;;;24.00;16.70;;;;;;;2.41;100.00;102046.66;10484000;28;20068;-82
2023/12/14 18:19:41;;;;;;;23.00;15.40;;;;;;;2.40;100.00;102057.75;10484189;28;20124;-83
2023/12/14 18:24:42;;;;;;;33.30;20.42;;;;;;;2.36;100.00;102074.66;10483008;28;20472;-82
2023/12/14 18:29:42;;;;;;;37.45;18.95;;;;;;;2.36;100.00;102087.56;10483364;28;20119;-83
2023/12/14 18:34:43;;;;;;;37.55;16.80;;;;;;;2.39;100.00;102099.88;10464473;28;20047;-83
2023/12/14 18:39:43;;;;;;;26.20;15.98;;;;;;;2.39;100.00;102098.22;10483118;28;20124;-83
2023/12/14 18:44:44;;;;;;;28.85;19.27;;;;;;;2.42;100.00;102100.19;10465871;28;20048;-83
2023/12/14 18:49:45;;;;;;;25.48;16.02;;;;;;;2.46;100.00;102103.25;10482250;28;20209;-82
2023/12/14 18:54:45;;;;;;;30.95;17.45;;;;;;;2.47;100.00;102110.22;10483529;28;20060;-82
2023/12/14 18:59:46;;;;;;;29.52;16.88;;;;;;;2.47;100.00;102114.47;10483098;28;20067;-83
2023/12/14 19:04:47;;;;;;;33.25;19.55;;;;;;;2.54;100.00;102129.84;10481848;28;20102;-83
2023/12/14 19:09:48;;;;;;;44.38;17.80;;;;;;;2.56;100.00;102136.06;10483373;28;20089;-83
2023/12/14 19:14:48;;;;;;;37.33;23.35;;;;;;;2.59;100.00;102128.63;10464320;28;20170;-82
2023/12/14 19:19:49;;;;;;;38.10;22.15;;;;;;;2.64;100.00;102139.44;10463955;28;20040;-83
2023/12/14 19:24:50;;;;;;;38.15;21.90;;;;;;;2.67;100.00;102146.56;10474224;28;20123;-82
2023/12/14 19:29:50;;;;;;;39.67;25.35;;;;;;;2.74;100.00;102151.59;10458216;28;20124;-82
2023/12/14 19:34:51;;;;;;;44.15;27.95;;;;;;;2.74;100.00;102157.69;10452214;28;20125;-81
2023/12/14 19:39:51;;;;;;;40.28;24.15;;;;;;;2.74;100.00;102169.69;10410933;28;20037;-81
2023/12/14 19:44:52;;;;;;;44.78;26.55;;;;;;;2.83;100.00;102172.31;10439056;28;20068;-81
2023/12/14 19:49:53;;;;;;;43.75;24.60;;;;;;;2.90;100.00;102173.06;10455841;28;20040;-81
2023/12/14 19:54:53;;;;;;;45.63;28.13;;;;;;;2.91;100.00;102177.47;10476682;28;20522;-80
2023/12/14 19:59:54;;;;;;;42.80;27.02;;;;;;;2.98;100.00;102186.75;10466147;28;20077;-82
2023/12/14 20:04:54;;;;;;;48.33;27.60;;;;;;;3.04;100.00;102189.03;10474988;28;20044;-82
2023/12/14 20:09:55;;;;;;;37.92;25.15;;;;;;;3.02;100.00;102194.06;10492485;28;20131;-82
2023/12/14 20:14:55;;;;;;;40.72;23.70;;;;;;;3.04;100.00;102204.56;10469600;28;20563;-82
2023/12/14 20:19:56;;;;;;;41.78;25.27;;;;;;;2.94;100.00;102207.91;10482748;28;20124;-82
2023/12/14 20:24:56;;;;;;;43.63;26.13;;;;;;;2.94;100.00;102220.84;10491648;28;20128;-82
2023/12/14 20:29:57;;;;;;;41.35;28.63;;;;;;;2.93;100.00;102227.66;10501201;28;20131;-81
2023/12/14 20:34:58;;;;;;;40.97;26.95;;;;;;;2.97;100.00;102233.16;10498749;28;20119;-86
2023/12/14 20:39:58;;;;;;;46.95;28.25;;;;;;;2.91;100.00;102231.78;10512071;28;20036;-83
2023/12/14 20:44:59;;;;;;;43.03;27.77;;;;;;;2.88;100.00;102235.75;10469709;28;20124;-84
2023/12/14 20:49:59;;;;;;;42.97;26.63;;;;;;;2.79;100.00;102241.81;10475949;28;20037;-83
2023/12/14 20:55:02;;;;;;;49.30;27.25;;;;;;;2.75;100.00;102236.16;10442083;28;20033;-83
2023/12/14 21:00:03;;;;;;;;;;;;;;;2.69;100.00;102245.88;10447967;28;20499;-83
2023/12/14 21:05:04;;;;;;;39.55;25.65;;;;;;;2.55;100.00;102247.06;10471155;27;19973;-84
2023/12/14 21:10:04;;;;;;;49.90;32.17;;;;;;;2.52;100.00;102265.75;10489236;28;20056;-84
2023/12/14 21:15:05;;;;;;;42.85;28.85;;;;;;;2.56;100.00;102265.31;10496103;28;20131;-84
2023/12/14 21:20:06;;;;;;;40.33;26.38;;;;;;;2.43;100.00;102270.91;10480945;28;20051;-84
2023/12/14 21:25:07;;;;;;;53.53;30.53;;;;;;;2.38;100.00;102278.91;10483772;28;20482;-84
2023/12/14 21:30:08;;;;;;;45.83;29.02;;;;;;;2.47;100.00;102283.38;10495271;28;20051;-83
2023/12/14 21:35:09;;;;;;;57.38;32.10;;;;;;;2.49;100.00;102289.63;10503866;28;20171;-84
2023/12/14 21:40:10;;;;;;;54.20;31.90;;;;;;;2.62;100.00;102289.19;10470734;28;20488;-83
2023/12/14 21:45:10;;;;;;;49.53;30.90;;;;;;;2.71;100.00;102294.41;10445885;28;20043;-83
2023/12/14 21:50:11;;;;;;;49.67;29.85;;;;;;;2.75;100.00;102299.16;10485888;28;20128;-83
2023/12/14 21:55:11;;;;;;;60.33;34.15;;;;;;;2.67;100.00;102304.28;10448210;28;20053;-83
2023/12/14 22:00:12;;;;;;;45.85;27.25;;;;;;;2.71;100.00;102304.75;10427753;28;20049;-84
2023/12/14 22:05:13;;;;;;;55.55;31.30;;;;;;;2.77;100.00;102309.63;10459714;28;20040;-84
2023/12/14 22:10:15;;;;;;;51.60;32.75;;;;;;;2.82;100.00;102310.13;10431645;28;20049;-84
2023/12/14 22:15:16;;;;;;;65.85;33.72;;;;;;;2.97;100.00;102311.69;10401300;28;20049;-83
2023/12/14 22:20:16;;;;;;;58.13;34.00;;;;;;;3.01;100.00;102306.06;10445543;28;20560;-83
2023/12/14 22:25:17;;;;;;;46.08;26.00;;;;;;;2.91;100.00;102311.94;10441452;28;20041;-84
2023/12/14 22:30:17;;;;;;;57.60;28.25;;;;;;;2.87;100.00;102309.81;10437234;28;20378;-83